sensor_id;sensor_type;location;lat;lon;timestamp;P1;durP1;ratioP1;P2;durP2;ratioP2
6342;SDS011;3204;42.698;23.298;2022-10-20T00:01:21;33.10;;;22.88;;
6342;SDS011;3204;42.698;23.298;2022-10-20T00:03:51;28.45;;;22.55;;
6342;SDS011;3204;42.698;23.298;2022-10-20T00:06:24;29.73;;;22.17;;
6342;SDS011;3204;42.698;23.298;2022-10-20T00:08:51;25.40;;;22.27;;
6342;SDS011;3204;42.698;23.298;2022-10-20T00:11:19;28.23;;;23.20;;
6342;SDS011;3204;42.698;23.298;2022-10-20T00:13:46;25.38;;;22.05;;
6342;SDS011;3204;42.698;23.298;2022-10-20T00:16:13;27.60;;;22.08;;
6342;SDS011;3204;42.698;23.298;2022-10-20T00:18:39;26.20;;;22.60;;
6342;SDS011;3204;42.698;23.298;2022-10-20T00:21:06;24.23;;;20.52;;
6342;SDS011;3204;42.698;23.298;2022-10-20T00:23:32;23.52;;;19.40;;
6342;SDS011;3204;42.698;23.298;2022-10-20T00:25:59;26.77;;;20.80;;
6342;SDS011;3204;42.698;23.298;2022-10-20T00:28:33;23.10;;;19.65;;
6342;SDS011;3204;42.698;23.298;2022-10-20T00:30:58;23.35;;;20.25;;
6342;SDS011;3204;42.698;23.298;2022-10-20T00:33:25;21.58;;;19.33;;
6342;SDS011;3204;42.698;23.298;2022-10-20T00:35:50;22.92;;;19.00;;
6342;SDS011;3204;42.698;23.298;2022-10-20T00:38:16;21.75;;;18.58;;
6342;SDS011;3204;42.698;23.298;2022-10-20T00:40:42;20.65;;;18.45;;
6342;SDS011;3204;42.698;23.298;2022-10-20T00:43:14;23.13;;;17.83;;
6342;SDS011;3204;42.698;23.298;2022-10-20T00:45:41;18.35;;;16.40;;
6342;SDS011;3204;42.698;23.298;2022-10-20T00:48:13;19.35;;;16.75;;
6342;SDS011;3204;42.698;23.298;2022-10-20T00:50:48;18.33;;;16.42;;
6342;SDS011;3204;42.698;23.298;2022-10-20T00:53:17;17.67;;;15.65;;
6342;SDS011;3204;42.698;23.298;2022-10-20T00:55:47;19.85;;;16.55;;
6342;SDS011;3204;42.698;23.298;2022-10-20T00:58:15;18.65;;;16.52;;
6342;SDS011;3204;42.698;23.298;2022-10-20T01:00:41;16.88;;;15.27;;
6342;SDS011;3204;42.698;23.298;2022-10-20T01:03:14;18.73;;;15.07;;
6342;SDS011;3204;42.698;23.298;2022-10-20T01:05:43;19.63;;;15.27;;
6342;SDS011;3204;42.698;23.298;2022-10-20T01:08:09;16.23;;;14.40;;
6342;SDS011;3204;42.698;23.298;2022-10-20T01:10:39;16.27;;;14.23;;
6342;SDS011;3204;42.698;23.298;2022-10-20T01:13:35;15.68;;;14.15;;
6342;SDS011;3204;42.698;23.298;2022-10-20T01:16:11;15.27;;;13.57;;
6342;SDS011;3204;42.698;23.298;2022-10-20T01:18:47;16.60;;;13.77;;
6342;SDS011;3204;42.698;23.298;2022-10-20T01:21:29;15.18;;;13.88;;
6342;SDS011;3204;42.698;23.298;2022-10-20T01:24:25;17.30;;;13.52;;
6342;SDS011;3204;42.698;23.298;2022-10-20T01:29:38;14.75;;;13.38;;
6342;SDS011;3204;42.698;23.298;2022-10-20T01:32:19;14.88;;;13.38;;
6342;SDS011;3204;42.698;23.298;2022-10-20T01:35:02;14.20;;;12.90;;
6342;SDS011;3204;42.698;23.298;2022-10-20T01:37:47;14.07;;;12.77;;
6342;SDS011;3204;42.698;23.298;2022-10-20T01:43:24;13.27;;;12.13;;
6342;SDS011;3204;42.698;23.298;2022-10-20T01:45:53;13.60;;;12.30;;
6342;SDS011;3204;42.698;23.298;2022-10-20T01:48:21;12.65;;;11.50;;
6342;SDS011;3204;42.698;23.298;2022-10-20T01:50:52;14.10;;;12.60;;
6342;SDS011;3204;42.698;23.298;2022-10-20T01:53:18;14.20;;;12.60;;
6342;SDS011;3204;42.698;23.298;2022-10-20T01:55:44;15.00;;;13.68;;
6342;SDS011;3204;42.698;23.298;2022-10-20T02:00:47;15.05;;;13.43;;
6342;SDS011;3204;42.698;23.298;2022-10-20T02:03:30;14.10;;;12.90;;
6342;SDS011;3204;42.698;23.298;2022-10-20T02:09:15;15.05;;;13.70;;
6342;SDS011;3204;42.698;23.298;2022-10-20T02:11:52;15.10;;;13.60;;
6342;SDS011;3204;42.698;23.298;2022-10-20T02:14:24;13.25;;;12.00;;
6342;SDS011;3204;42.698;23.298;2022-10-20T02:16:51;15.48;;;13.63;;
6342;SDS011;3204;42.698;23.298;2022-10-20T02:19:28;15.63;;;13.25;;
6342;SDS011;3204;42.698;23.298;2022-10-20T02:21:58;14.77;;;13.27;;
6342;SDS011;3204;42.698;23.298;2022-10-20T02:24:25;14.85;;;13.32;;
6342;SDS011;3204;42.698;23.298;2022-10-20T02:26:56;14.52;;;13.23;;
6342;SDS011;3204;42.698;23.298;2022-10-20T02:29:29;15.75;;;14.30;;
6342;SDS011;3204;42.698;23.298;2022-10-20T02:32:00;16.30;;;13.90;;
6342;SDS011;3204;42.698;23.298;2022-10-20T02:34:27;17.73;;;14.63;;
6342;SDS011;3204;42.698;23.298;2022-10-20T02:36:55;16.13;;;14.43;;
6342;SDS011;3204;42.698;23.298;2022-10-20T02:39:22;16.17;;;14.68;;
6342;SDS011;3204;42.698;23.298;2022-10-20T02:41:48;20.33;;;15.00;;
6342;SDS011;3204;42.698;23.298;2022-10-20T02:44:13;18.85;;;14.30;;
6342;SDS011;3204;42.698;23.298;2022-10-20T02:46:39;16.65;;;13.77;;
6342;SDS011;3204;42.698;23.298;2022-10-20T02:49:04;15.05;;;13.60;;
6342;SDS011;3204;42.698;23.298;2022-10-20T02:51:30;15.77;;;14.18;;
6342;SDS011;3204;42.698;23.298;2022-10-20T02:53:56;15.32;;;13.80;;
6342;SDS011;3204;42.698;23.298;2022-10-20T02:56:21;17.05;;;13.30;;
6342;SDS011;3204;42.698;23.298;2022-10-20T02:58:47;16.05;;;13.73;;
6342;SDS011;3204;42.698;23.298;2022-10-20T03:01:13;15.50;;;13.88;;
6342;SDS011;3204;42.698;23.298;2022-10-20T03:03:38;14.80;;;13.32;;
6342;SDS011;3204;42.698;23.298;2022-10-20T03:06:08;16.23;;;14.65;;
6342;SDS011;3204;42.698;23.298;2022-10-20T03:08:38;13.85;;;12.65;;
6342;SDS011;3204;42.698;23.298;2022-10-20T03:11:04;15.57;;;14.10;;
6342;SDS011;3204;42.698;23.298;2022-10-20T03:13:30;16.75;;;13.93;;
6342;SDS011;3204;42.698;23.298;2022-10-20T03:15:55;14.80;;;13.40;;
6342;SDS011;3204;42.698;23.298;2022-10-20T03:18:21;15.13;;;13.57;;
6342;SDS011;3204;42.698;23.298;2022-10-20T03:20:49;14.05;;;12.68;;
6342;SDS011;3204;42.698;23.298;2022-10-20T03:23:15;15.10;;;13.63;;
6342;SDS011;3204;42.698;23.298;2022-10-20T03:25:41;17.42;;;14.48;;
6342;SDS011;3204;42.698;23.298;2022-10-20T03:28:06;16.30;;;13.57;;
6342;SDS011;3204;42.698;23.298;2022-10-20T03:30:32;19.52;;;14.27;;
6342;SDS011;3204;42.698;23.298;2022-10-20T03:32:57;15.85;;;14.23;;
6342;SDS011;3204;42.698;23.298;2022-10-20T03:35:23;16.13;;;14.38;;
6342;SDS011;3204;42.698;23.298;2022-10-20T03:37:48;17.70;;;14.55;;
6342;SDS011;3204;42.698;23.298;2022-10-20T03:40:14;18.17;;;14.27;;
6342;SDS011;3204;42.698;23.298;2022-10-20T03:42:40;15.05;;;13.48;;
6342;SDS011;3204;42.698;23.298;2022-10-20T03:45:05;15.10;;;13.60;;
6342;SDS011;3204;42.698;23.298;2022-10-20T03:47:32;16.92;;;14.27;;
6342;SDS011;3204;42.698;23.298;2022-10-20T03:49:58;18.75;;;14.80;;
6342;SDS011;3204;42.698;23.298;2022-10-20T03:52:23;16.23;;;13.45;;
6342;SDS011;3204;42.698;23.298;2022-10-20T03:54:48;16.95;;;13.77;;
6342;SDS011;3204;42.698;23.298;2022-10-20T03:57:14;15.40;;;13.85;;
6342;SDS011;3204;42.698;23.298;2022-10-20T03:59:40;14.88;;;13.23;;
6342;SDS011;3204;42.698;23.298;2022-10-20T04:02:05;15.30;;;13.70;;
6342;SDS011;3204;42.698;23.298;2022-10-20T04:04:31;14.68;;;12.93;;
6342;SDS011;3204;42.698;23.298;2022-10-20T04:06:57;18.23;;;12.82;;
6342;SDS011;3204;42.698;23.298;2022-10-20T04:09:22;16.63;;;13.82;;
6342;SDS011;3204;42.698;23.298;2022-10-20T04:11:48;20.23;;;14.60;;
6342;SDS011;3204;42.698;23.298;2022-10-20T04:14:13;19.60;;;13.93;;
6342;SDS011;3204;42.698;23.298;2022-10-20T04:16:39;17.98;;;13.70;;
6342;SDS011;3204;42.698;23.298;2022-10-20T04:19:06;19.27;;;13.88;;
6342;SDS011;3204;42.698;23.298;2022-10-20T04:21:31;15.80;;;14.20;;
6342;SDS011;3204;42.698;23.298;2022-10-20T04:23:57;16.83;;;14.85;;
6342;SDS011;3204;42.698;23.298;2022-10-20T04:26:22;17.88;;;14.23;;
6342;SDS011;3204;42.698;23.298;2022-10-20T04:28:48;18.63;;;14.45;;
6342;SDS011;3204;42.698;23.298;2022-10-20T04:31:13;16.77;;;13.90;;
6342;SDS011;3204;42.698;23.298;2022-10-20T04:33:39;22.55;;;14.65;;
6342;SDS011;3204;42.698;23.298;2022-10-20T04:36:05;22.23;;;14.40;;
6342;SDS011;3204;42.698;23.298;2022-10-20T04:38:32;14.80;;;13.48;;
6342;SDS011;3204;42.698;23.298;2022-10-20T04:40:59;18.83;;;14.85;;
6342;SDS011;3204;42.698;23.298;2022-10-20T04:43:28;16.05;;;14.45;;
6342;SDS011;3204;42.698;23.298;2022-10-20T04:45:58;15.70;;;14.10;;
6342;SDS011;3204;42.698;23.298;2022-10-20T04:48:24;21.38;;;14.18;;
6342;SDS011;3204;42.698;23.298;2022-10-20T04:51:06;15.45;;;13.70;;
6342;SDS011;3204;42.698;23.298;2022-10-20T04:53:33;16.35;;;14.48;;
6342;SDS011;3204;42.698;23.298;2022-10-20T04:56:00;21.35;;;14.48;;
6342;SDS011;3204;42.698;23.298;2022-10-20T04:58:26;19.13;;;14.18;;
6342;SDS011;3204;42.698;23.298;2022-10-20T05:00:52;17.98;;;13.93;;
6342;SDS011;3204;42.698;23.298;2022-10-20T05:03:18;17.58;;;15.35;;
6342;SDS011;3204;42.698;23.298;2022-10-20T05:05:47;16.17;;;14.63;;
6342;SDS011;3204;42.698;23.298;2022-10-20T05:08:13;16.10;;;14.32;;
6342;SDS011;3204;42.698;23.298;2022-10-20T05:10:38;19.73;;;14.75;;
6342;SDS011;3204;42.698;23.298;2022-10-20T05:13:04;22.77;;;15.65;;
6342;SDS011;3204;42.698;23.298;2022-10-20T05:15:29;23.67;;;15.32;;
6342;SDS011;3204;42.698;23.298;2022-10-20T05:17:55;23.42;;;14.65;;
6342;SDS011;3204;42.698;23.298;2022-10-20T05:20:21;18.63;;;14.52;;
6342;SDS011;3204;42.698;23.298;2022-10-20T05:22:47;24.90;;;16.05;;
6342;SDS011;3204;42.698;23.298;2022-10-20T05:25:12;21.67;;;15.93;;
6342;SDS011;3204;42.698;23.298;2022-10-20T05:27:38;17.92;;;16.00;;
6342;SDS011;3204;42.698;23.298;2022-10-20T05:30:03;21.27;;;16.42;;
6342;SDS011;3204;42.698;23.298;2022-10-20T05:32:29;20.80;;;16.02;;
6342;SDS011;3204;42.698;23.298;2022-10-20T05:34:54;18.88;;;15.18;;
6342;SDS011;3204;42.698;23.298;2022-10-20T05:37:20;16.38;;;14.70;;
6342;SDS011;3204;42.698;23.298;2022-10-20T05:39:46;23.48;;;15.48;;
6342;SDS011;3204;42.698;23.298;2022-10-20T05:42:11;25.65;;;16.55;;
6342;SDS011;3204;42.698;23.298;2022-10-20T05:44:37;21.95;;;16.58;;
6342;SDS011;3204;42.698;23.298;2022-10-20T05:47:02;22.05;;;15.60;;
6342;SDS011;3204;42.698;23.298;2022-10-20T05:49:28;20.20;;;16.20;;
6342;SDS011;3204;42.698;23.298;2022-10-20T05:51:53;20.35;;;16.33;;
6342;SDS011;3204;42.698;23.298;2022-10-20T05:54:19;29.20;;;17.52;;
6342;SDS011;3204;42.698;23.298;2022-10-20T05:56:44;27.48;;;18.23;;
6342;SDS011;3204;42.698;23.298;2022-10-20T05:59:10;21.40;;;16.08;;
6342;SDS011;3204;42.698;23.298;2022-10-20T06:01:36;18.27;;;14.70;;
6342;SDS011;3204;42.698;23.298;2022-10-20T06:04:14;22.13;;;15.65;;
6342;SDS011;3204;42.698;23.298;2022-10-20T06:06:44;19.88;;;15.23;;
6342;SDS011;3204;42.698;23.298;2022-10-20T06:09:10;20.65;;;15.45;;
6342;SDS011;3204;42.698;23.298;2022-10-20T06:11:36;23.63;;;16.00;;
6342;SDS011;3204;42.698;23.298;2022-10-20T06:14:06;20.58;;;16.70;;
6342;SDS011;3204;42.698;23.298;2022-10-20T06:16:32;22.50;;;16.27;;
6342;SDS011;3204;42.698;23.298;2022-10-20T06:18:58;25.45;;;15.98;;
6342;SDS011;3204;42.698;23.298;2022-10-20T06:21:24;20.08;;;15.73;;
6342;SDS011;3204;42.698;23.298;2022-10-20T06:23:51;20.85;;;16.13;;
6342;SDS011;3204;42.698;23.298;2022-10-20T06:26:18;24.20;;;17.08;;
6342;SDS011;3204;42.698;23.298;2022-10-20T06:28:46;20.13;;;16.65;;
6342;SDS011;3204;42.698;23.298;2022-10-20T06:31:15;20.63;;;17.15;;
6342;SDS011;3204;42.698;23.298;2022-10-20T06:33:45;21.38;;;17.65;;
6342;SDS011;3204;42.698;23.298;2022-10-20T06:36:11;19.80;;;16.35;;
6342;SDS011;3204;42.698;23.298;2022-10-20T06:38:37;21.73;;;17.58;;
6342;SDS011;3204;42.698;23.298;2022-10-20T06:41:05;20.30;;;16.95;;
6342;SDS011;3204;42.698;23.298;2022-10-20T06:43:32;22.85;;;17.38;;
6342;SDS011;3204;42.698;23.298;2022-10-20T06:45:58;20.63;;;16.52;;
6342;SDS011;3204;42.698;23.298;2022-10-20T06:48:26;19.67;;;17.50;;
6342;SDS011;3204;42.698;23.298;2022-10-20T06:50:59;19.45;;;15.90;;
6342;SDS011;3204;42.698;23.298;2022-10-20T06:53:26;18.83;;;16.65;;
6342;SDS011;3204;42.698;23.298;2022-10-20T06:58:24;18.30;;;15.23;;
6342;SDS011;3204;42.698;23.298;2022-10-20T07:00:57;18.38;;;15.68;;
6342;SDS011;3204;42.698;23.298;2022-10-20T07:03:33;17.50;;;14.73;;
6342;SDS011;3204;42.698;23.298;2022-10-20T07:06:00;16.20;;;14.55;;
6342;SDS011;3204;42.698;23.298;2022-10-20T07:08:27;21.40;;;14.90;;
6342;SDS011;3204;42.698;23.298;2022-10-20T07:11:13;16.17;;;14.52;;
6342;SDS011;3204;42.698;23.298;2022-10-20T07:13:40;15.85;;;14.13;;
6342;SDS011;3204;42.698;23.298;2022-10-20T07:16:07;16.23;;;13.52;;
6342;SDS011;3204;42.698;23.298;2022-10-20T07:18:35;14.77;;;13.43;;
6342;SDS011;3204;42.698;23.298;2022-10-20T07:21:02;15.13;;;13.20;;
6342;SDS011;3204;42.698;23.298;2022-10-20T07:23:29;14.75;;;13.38;;
6342;SDS011;3204;42.698;23.298;2022-10-20T07:26:00;18.90;;;14.00;;
6342;SDS011;3204;42.698;23.298;2022-10-20T07:28:29;15.10;;;13.25;;
6342;SDS011;3204;42.698;23.298;2022-10-20T07:30:55;16.75;;;12.63;;
6342;SDS011;3204;42.698;23.298;2022-10-20T07:33:21;14.68;;;13.27;;
6342;SDS011;3204;42.698;23.298;2022-10-20T07:35:47;15.13;;;13.05;;
6342;SDS011;3204;42.698;23.298;2022-10-20T07:38:14;18.73;;;13.55;;
6342;SDS011;3204;42.698;23.298;2022-10-20T07:40:39;17.95;;;13.60;;
6342;SDS011;3204;42.698;23.298;2022-10-20T07:43:05;16.33;;;13.07;;
6342;SDS011;3204;42.698;23.298;2022-10-20T07:45:31;14.25;;;12.80;;
6342;SDS011;3204;42.698;23.298;2022-10-20T07:47:57;13.70;;;12.50;;
6342;SDS011;3204;42.698;23.298;2022-10-20T07:50:23;14.30;;;11.80;;
6342;SDS011;3204;42.698;23.298;2022-10-20T07:52:50;14.02;;;12.60;;
6342;SDS011;3204;42.698;23.298;2022-10-20T07:55:16;13.52;;;11.05;;
6342;SDS011;3204;42.698;23.298;2022-10-20T07:57:42;16.95;;;12.10;;
6342;SDS011;3204;42.698;23.298;2022-10-20T08:00:08;13.15;;;11.70;;
6342;SDS011;3204;42.698;23.298;2022-10-20T08:02:34;13.50;;;12.38;;
6342;SDS011;3204;42.698;23.298;2022-10-20T08:05:00;12.65;;;11.52;;
6342;SDS011;3204;42.698;23.298;2022-10-20T08:07:26;11.90;;;10.93;;
6342;SDS011;3204;42.698;23.298;2022-10-20T08:09:51;11.82;;;10.23;;
6342;SDS011;3204;42.698;23.298;2022-10-20T08:12:17;11.77;;;10.93;;
6342;SDS011;3204;42.698;23.298;2022-10-20T08:14:42;11.38;;;10.38;;
6342;SDS011;3204;42.698;23.298;2022-10-20T08:17:08;12.23;;;10.68;;
6342;SDS011;3204;42.698;23.298;2022-10-20T08:19:34;11.45;;;10.30;;
6342;SDS011;3204;42.698;23.298;2022-10-20T08:22:00;12.45;;;11.15;;
6342;SDS011;3204;42.698;23.298;2022-10-20T08:24:25;12.77;;;9.88;;
6342;SDS011;3204;42.698;23.298;2022-10-20T08:26:51;14.52;;;9.48;;
6342;SDS011;3204;42.698;23.298;2022-10-20T08:29:16;10.43;;;9.15;;
6342;SDS011;3204;42.698;23.298;2022-10-20T08:31:45;9.85;;;9.15;;
6342;SDS011;3204;42.698;23.298;2022-10-20T08:34:11;9.10;;;8.25;;
6342;SDS011;3204;42.698;23.298;2022-10-20T08:36:36;8.85;;;7.97;;
6342;SDS011;3204;42.698;23.298;2022-10-20T08:39:02;8.65;;;8.02;;
6342;SDS011;3204;42.698;23.298;2022-10-20T08:41:29;9.65;;;8.75;;
6342;SDS011;3204;42.698;23.298;2022-10-20T08:44:00;10.52;;;8.25;;
6342;SDS011;3204;42.698;23.298;2022-10-20T08:46:28;8.90;;;8.20;;
6342;SDS011;3204;42.698;23.298;2022-10-20T08:48:56;8.40;;;7.68;;
6342;SDS011;3204;42.698;23.298;2022-10-20T08:51:23;9.02;;;7.80;;
6342;SDS011;3204;42.698;23.298;2022-10-20T08:53:52;7.50;;;6.93;;
6342;SDS011;3204;42.698;23.298;2022-10-20T08:56:22;8.70;;;7.80;;
6342;SDS011;3204;42.698;23.298;2022-10-20T08:58:48;16.00;;;7.22;;
6342;SDS011;3204;42.698;23.298;2022-10-20T09:01:22;7.80;;;6.70;;
6342;SDS011;3204;42.698;23.298;2022-10-20T09:03:57;7.32;;;6.40;;
6342;SDS011;3204;42.698;23.298;2022-10-20T09:06:27;6.28;;;5.55;;
6342;SDS011;3204;42.698;23.298;2022-10-20T09:08:53;5.80;;;5.28;;
6342;SDS011;3204;42.698;23.298;2022-10-20T09:11:22;7.88;;;4.72;;
6342;SDS011;3204;42.698;23.298;2022-10-20T09:13:49;5.22;;;4.93;;
6342;SDS011;3204;42.698;23.298;2022-10-20T09:16:22;5.88;;;5.57;;
6342;SDS011;3204;42.698;23.298;2022-10-20T09:18:52;6.80;;;5.60;;
6342;SDS011;3204;42.698;23.298;2022-10-20T09:21:22;8.57;;;5.72;;
6342;SDS011;3204;42.698;23.298;2022-10-20T09:23:53;5.88;;;5.38;;
6342;SDS011;3204;42.698;23.298;2022-10-20T09:26:32;6.97;;;5.55;;
6342;SDS011;3204;42.698;23.298;2022-10-20T09:29:18;5.50;;;4.85;;
6342;SDS011;3204;42.698;23.298;2022-10-20T09:31:47;5.90;;;5.60;;
6342;SDS011;3204;42.698;23.298;2022-10-20T09:34:21;6.32;;;5.68;;
6342;SDS011;3204;42.698;23.298;2022-10-20T09:36:47;5.50;;;5.20;;
6342;SDS011;3204;42.698;23.298;2022-10-20T09:39:21;5.88;;;5.45;;
6342;SDS011;3204;42.698;23.298;2022-10-20T09:41:49;5.00;;;4.60;;
6342;SDS011;3204;42.698;23.298;2022-10-20T09:44:22;5.03;;;4.63;;
6342;SDS011;3204;42.698;23.298;2022-10-20T09:46:50;5.53;;;5.22;;
6342;SDS011;3204;42.698;23.298;2022-10-20T09:51:54;5.57;;;5.05;;
6342;SDS011;3204;42.698;23.298;2022-10-20T09:54:21;5.05;;;4.50;;
6342;SDS011;3204;42.698;23.298;2022-10-20T09:56:49;5.15;;;4.65;;
6342;SDS011;3204;42.698;23.298;2022-10-20T09:59:18;5.00;;;4.70;;
6342;SDS011;3204;42.698;23.298;2022-10-20T10:01:51;5.97;;;5.00;;
6342;SDS011;3204;42.698;23.298;2022-10-20T10:04:29;4.80;;;4.60;;
6342;SDS011;3204;42.698;23.298;2022-10-20T10:07:03;5.25;;;4.90;;
6342;SDS011;3204;42.698;23.298;2022-10-20T10:09:31;5.32;;;4.93;;
6342;SDS011;3204;42.698;23.298;2022-10-20T10:14:30;5.30;;;5.00;;
6342;SDS011;3204;42.698;23.298;2022-10-20T10:16:57;5.10;;;4.80;;
6342;SDS011;3204;42.698;23.298;2022-10-20T10:19:25;5.07;;;4.63;;
6342;SDS011;3204;42.698;23.298;2022-10-20T10:27:31;4.88;;;4.53;;
6342;SDS011;3204;42.698;23.298;2022-10-20T10:33:23;5.40;;;5.00;;
6342;SDS011;3204;42.698;23.298;2022-10-20T10:35:50;4.68;;;4.30;;
6342;SDS011;3204;42.698;23.298;2022-10-20T10:38:16;5.60;;;4.70;;
6342;SDS011;3204;42.698;23.298;2022-10-20T10:40:51;4.45;;;4.22;;
6342;SDS011;3204;42.698;23.298;2022-10-20T10:54:28;4.95;;;4.63;;
6342;SDS011;3204;42.698;23.298;2022-10-20T10:59:51;5.32;;;4.97;;
6342;SDS011;3204;42.698;23.298;2022-10-20T11:27:06;4.75;;;4.45;;
6342;SDS011;3204;42.698;23.298;2022-10-20T11:29:51;5.07;;;4.63;;
6342;SDS011;3204;42.698;23.298;2022-10-20T11:40:30;5.18;;;4.90;;
6342;SDS011;3204;42.698;23.298;2022-10-20T11:48:40;5.40;;;4.90;;
6342;SDS011;3204;42.698;23.298;2022-10-20T11:54:16;7.47;;;5.10;;
6342;SDS011;3204;42.698;23.298;2022-10-20T12:11:09;4.60;;;4.15;;
6342;SDS011;3204;42.698;23.298;2022-10-20T12:19:18;5.55;;;5.18;;
6342;SDS011;3204;42.698;23.298;2022-10-20T12:21:53;4.75;;;4.45;;
6342;SDS011;3204;42.698;23.298;2022-10-20T12:34:49;4.63;;;4.10;;
6342;SDS011;3204;42.698;23.298;2022-10-20T12:37:22;5.03;;;4.63;;
6342;SDS011;3204;42.698;23.298;2022-10-20T12:42:35;5.55;;;5.07;;
6342;SDS011;3204;42.698;23.298;2022-10-20T12:45:07;5.18;;;4.68;;
6342;SDS011;3204;42.698;23.298;2022-10-20T12:47:54;6.38;;;3.72;;
6342;SDS011;3204;42.698;23.298;2022-10-20T12:50:34;4.03;;;3.75;;
6342;SDS011;3204;42.698;23.298;2022-10-20T12:55:40;4.28;;;4.07;;
6342;SDS011;3204;42.698;23.298;2022-10-20T12:58:11;5.40;;;4.93;;
6342;SDS011;3204;42.698;23.298;2022-10-20T13:16:30;5.13;;;4.68;;
6342;SDS011;3204;42.698;23.298;2022-10-20T13:18:58;4.57;;;3.78;;
6342;SDS011;3204;42.698;23.298;2022-10-20T13:21:28;4.28;;;3.85;;
6342;SDS011;3204;42.698;23.298;2022-10-20T13:23:58;4.00;;;3.75;;
6342;SDS011;3204;42.698;23.298;2022-10-20T13:26:28;4.55;;;4.20;;
6342;SDS011;3204;42.698;23.298;2022-10-20T13:28:57;6.88;;;4.30;;
6342;SDS011;3204;42.698;23.298;2022-10-20T13:31:30;4.80;;;3.35;;
6342;SDS011;3204;42.698;23.298;2022-10-20T13:36:48;6.43;;;4.43;;
6342;SDS011;3204;42.698;23.298;2022-10-20T13:39:27;4.00;;;3.72;;
6342;SDS011;3204;42.698;23.298;2022-10-20T13:42:17;3.88;;;3.40;;
6342;SDS011;3204;42.698;23.298;2022-10-20T13:50:13;7.10;;;3.72;;
6342;SDS011;3204;42.698;23.298;2022-10-20T13:52:42;5.22;;;3.78;;
6342;SDS011;3204;42.698;23.298;2022-10-20T13:55:14;3.95;;;3.75;;
6342;SDS011;3204;42.698;23.298;2022-10-20T13:57:45;3.97;;;3.78;;
6342;SDS011;3204;42.698;23.298;2022-10-20T14:00:16;5.70;;;3.85;;
6342;SDS011;3204;42.698;23.298;2022-10-20T14:03:04;4.03;;;3.63;;
6342;SDS011;3204;42.698;23.298;2022-10-20T14:05:40;5.25;;;3.58;;
6342;SDS011;3204;42.698;23.298;2022-10-20T14:08:09;5.25;;;3.53;;
6342;SDS011;3204;42.698;23.298;2022-10-20T14:10:52;6.72;;;4.03;;
6342;SDS011;3204;42.698;23.298;2022-10-20T14:13:21;4.85;;;3.10;;
6342;SDS011;3204;42.698;23.298;2022-10-20T14:15:50;5.03;;;3.70;;
6342;SDS011;3204;42.698;23.298;2022-10-20T14:18:19;3.83;;;3.60;;
6342;SDS011;3204;42.698;23.298;2022-10-20T14:20:55;4.28;;;3.47;;
6342;SDS011;3204;42.698;23.298;2022-10-20T14:23:27;5.22;;;3.60;;
6342;SDS011;3204;42.698;23.298;2022-10-20T14:25:57;8.35;;;3.80;;
6342;SDS011;3204;42.698;23.298;2022-10-20T14:28:23;6.72;;;3.95;;
6342;SDS011;3204;42.698;23.298;2022-10-20T14:30:53;6.15;;;3.67;;
6342;SDS011;3204;42.698;23.298;2022-10-20T14:33:19;5.55;;;3.88;;
6342;SDS011;3204;42.698;23.298;2022-10-20T14:35:47;5.68;;;3.20;;
6342;SDS011;3204;42.698;23.298;2022-10-20T14:38:21;3.97;;;3.55;;
6342;SDS011;3204;42.698;23.298;2022-10-20T14:40:59;4.55;;;3.60;;
6342;SDS011;3204;42.698;23.298;2022-10-20T14:46:02;6.10;;;4.18;;
6342;SDS011;3204;42.698;23.298;2022-10-20T14:48:36;10.02;;;4.43;;
6342;SDS011;3204;42.698;23.298;2022-10-20T14:59:17;11.18;;;4.43;;
6342;SDS011;3204;42.698;23.298;2022-10-20T15:01:57;6.13;;;4.18;;
6342;SDS011;3204;42.698;23.298;2022-10-20T15:04:27;7.78;;;4.50;;
6342;SDS011;3204;42.698;23.298;2022-10-20T15:09:30;4.90;;;4.50;;
6342;SDS011;3204;42.698;23.298;2022-10-20T15:14:49;8.07;;;4.72;;
6342;SDS011;3204;42.698;23.298;2022-10-20T15:17:33;5.13;;;4.40;;
6342;SDS011;3204;42.698;23.298;2022-10-20T15:22:56;6.10;;;5.25;;
6342;SDS011;3204;42.698;23.298;2022-10-20T15:25:28;5.28;;;4.75;;
6342;SDS011;3204;42.698;23.298;2022-10-20T15:27:56;7.20;;;4.20;;
6342;SDS011;3204;42.698;23.298;2022-10-20T15:30:22;6.35;;;4.93;;
6342;SDS011;3204;42.698;23.298;2022-10-20T15:32:49;7.82;;;4.60;;
6342;SDS011;3204;42.698;23.298;2022-10-20T15:35:17;5.07;;;4.70;;
6342;SDS011;3204;42.698;23.298;2022-10-20T15:37:48;4.70;;;4.32;;
6342;SDS011;3204;42.698;23.298;2022-10-20T15:40:15;6.75;;;4.60;;
6342;SDS011;3204;42.698;23.298;2022-10-20T15:42:41;6.15;;;5.55;;
6342;SDS011;3204;42.698;23.298;2022-10-20T15:45:10;10.32;;;5.00;;
6342;SDS011;3204;42.698;23.298;2022-10-20T15:47:48;9.73;;;5.75;;
6342;SDS011;3204;42.698;23.298;2022-10-20T15:50:13;15.82;;;7.07;;
6342;SDS011;3204;42.698;23.298;2022-10-20T15:52:40;11.60;;;6.93;;
6342;SDS011;3204;42.698;23.298;2022-10-20T15:57:52;6.35;;;5.55;;
6342;SDS011;3204;42.698;23.298;2022-10-20T16:00:19;7.45;;;5.32;;
6342;SDS011;3204;42.698;23.298;2022-10-20T16:02:46;5.22;;;4.70;;
6342;SDS011;3204;42.698;23.298;2022-10-20T16:05:12;10.52;;;6.60;;
6342;SDS011;3204;42.698;23.298;2022-10-20T16:07:37;8.75;;;6.57;;
6342;SDS011;3204;42.698;23.298;2022-10-20T16:10:04;7.53;;;6.15;;
6342;SDS011;3204;42.698;23.298;2022-10-20T16:12:30;7.45;;;6.85;;
6342;SDS011;3204;42.698;23.298;2022-10-20T16:14:55;11.75;;;6.43;;
6342;SDS011;3204;42.698;23.298;2022-10-20T16:17:21;10.68;;;6.68;;
6342;SDS011;3204;42.698;23.298;2022-10-20T16:19:46;8.32;;;5.75;;
6342;SDS011;3204;42.698;23.298;2022-10-20T16:22:12;6.47;;;5.88;;
6342;SDS011;3204;42.698;23.298;2022-10-20T16:24:37;8.18;;;5.75;;
6342;SDS011;3204;42.698;23.298;2022-10-20T16:27:02;8.70;;;5.72;;
6342;SDS011;3204;42.698;23.298;2022-10-20T16:29:30;9.43;;;8.43;;
6342;SDS011;3204;42.698;23.298;2022-10-20T16:31:56;9.13;;;8.32;;
6342;SDS011;3204;42.698;23.298;2022-10-20T16:34:22;9.05;;;8.13;;
6342;SDS011;3204;42.698;23.298;2022-10-20T16:36:51;11.35;;;8.77;;
6342;SDS011;3204;42.698;23.298;2022-10-20T16:39:16;13.18;;;10.05;;
6342;SDS011;3204;42.698;23.298;2022-10-20T16:41:43;21.80;;;11.30;;
6342;SDS011;3204;42.698;23.298;2022-10-20T16:44:09;17.88;;;12.05;;
6342;SDS011;3204;42.698;23.298;2022-10-20T16:46:34;22.40;;;14.48;;
6342;SDS011;3204;42.698;23.298;2022-10-20T16:49:00;21.88;;;14.43;;
6342;SDS011;3204;42.698;23.298;2022-10-20T16:51:25;29.23;;;15.45;;
6342;SDS011;3204;42.698;23.298;2022-10-20T16:53:54;26.50;;;16.17;;
6342;SDS011;3204;42.698;23.298;2022-10-20T16:56:20;25.42;;;15.98;;
6342;SDS011;3204;42.698;23.298;2022-10-20T16:58:46;24.92;;;15.40;;
6342;SDS011;3204;42.698;23.298;2022-10-20T17:01:12;28.77;;;16.15;;
6342;SDS011;3204;42.698;23.298;2022-10-20T17:03:40;23.85;;;14.50;;
6342;SDS011;3204;42.698;23.298;2022-10-20T17:06:10;22.13;;;15.20;;
6342;SDS011;3204;42.698;23.298;2022-10-20T17:08:37;17.52;;;12.32;;
6342;SDS011;3204;42.698;23.298;2022-10-20T17:11:03;23.80;;;12.55;;
6342;SDS011;3204;42.698;23.298;2022-10-20T17:13:31;14.27;;;11.32;;
6342;SDS011;3204;42.698;23.298;2022-10-20T17:16:01;10.52;;;9.43;;
6342;SDS011;3204;42.698;23.298;2022-10-20T17:18:28;28.60;;;11.45;;
6342;SDS011;3204;42.698;23.298;2022-10-20T17:20:54;20.85;;;11.30;;
6342;SDS011;3204;42.698;23.298;2022-10-20T17:23:20;21.88;;;11.80;;
6342;SDS011;3204;42.698;23.298;2022-10-20T17:25:46;18.08;;;12.45;;
6342;SDS011;3204;42.698;23.298;2022-10-20T17:28:12;22.65;;;11.82;;
6342;SDS011;3204;42.698;23.298;2022-10-20T17:30:41;18.27;;;12.90;;
6342;SDS011;3204;42.698;23.298;2022-10-20T17:33:07;22.98;;;13.68;;
6342;SDS011;3204;42.698;23.298;2022-10-20T17:35:34;28.58;;;13.63;;
6342;SDS011;3204;42.698;23.298;2022-10-20T17:38:00;26.60;;;13.82;;